createdAt,value
2018-01-31T01:52:31.002Z,13.20
2018-01-31T01:55:01.835Z,11.48
2018-01-31T01:57:32.770Z,11.40
2018-01-31T02:00:03.682Z,11.73
2018-01-31T02:02:34.614Z,11.98
2018-01-31T02:05:04.791Z,11.38
2018-01-31T02:07:35.748Z,11.50
2018-01-31T02:10:07.064Z,11.22
2018-01-31T02:12:38.616Z,12.24
2018-01-31T02:15:09.039Z,10.95
2018-01-31T02:17:40.530Z,11.44
2018-01-31T02:20:11.213Z,10.65
2018-01-31T02:22:42.079Z,11.12
2018-01-31T02:25:12.878Z,10.38
2018-01-31T02:27:43.411Z,9.88
2018-01-31T02:30:14.300Z,9.60
2018-01-31T02:32:44.983Z,9.07
2018-01-31T02:35:15.521Z,9.44
2018-01-31T02:37:45.942Z,9.70
2018-01-31T02:40:17.629Z,8.63
2018-01-31T02:42:48.213Z,8.50
2018-01-31T02:45:18.956Z,8.73
2018-01-31T02:47:49.980Z,9.00
2018-01-31T02:50:20.863Z,8.95
2018-01-31T02:52:51.419Z,8.62
2018-01-31T02:55:22.003Z,7.75
2018-01-31T02:57:52.936Z,7.05
2018-01-31T03:00:23.799Z,7.57
2018-01-31T03:02:55.193Z,7.86
2018-01-31T03:05:26.119Z,7.25
2018-01-31T03:07:56.508Z,7.62
2018-01-31T03:10:27.112Z,7.05
2018-01-31T03:12:58.027Z,6.72
2018-01-31T03:15:28.507Z,6.72
2018-01-31T03:17:59.991Z,6.78
2018-01-31T03:20:31.793Z,7.25
2018-01-31T03:23:02.607Z,7.57
2018-01-31T03:25:33.294Z,6.62
2018-01-31T03:28:04.076Z,6.70
2018-01-31T03:30:35.024Z,7.40
2018-01-31T03:33:06.430Z,7.12
2018-01-31T03:35:37.260Z,6.87
2018-01-31T03:38:07.504Z,6.58
2018-01-31T03:40:37.995Z,6.53
2018-01-31T03:43:07.867Z,6.50
2018-01-31T03:45:39.039Z,6.53
2018-01-31T03:48:09.712Z,6.18
2018-01-31T03:50:40.400Z,6.50
2018-01-31T03:53:11.199Z,6.70
2018-01-31T03:55:41.620Z,5.45
2018-01-31T03:58:12.271Z,6.05
2018-01-31T04:00:43.946Z,6.08
2018-01-31T04:03:14.906Z,6.40
2018-01-31T04:05:45.749Z,6.12
2018-01-31T04:08:17.510Z,5.98
2018-01-31T04:10:47.967Z,6.47
2018-01-31T04:13:17.912Z,6.12
2018-01-31T04:15:48.704Z,6.18
2018-01-31T04:18:19.390Z,6.55
2018-01-31T04:20:50.280Z,6.85
2018-01-31T04:23:21.243Z,5.62
2018-01-31T04:25:52.518Z,6.82
2018-01-31T04:28:23.254Z,6.45
2018-01-31T04:30:53.582Z,6.03
2018-01-31T04:33:24.426Z,6.45
2018-01-31T04:35:55.157Z,5.18
2018-01-31T04:38:24.389Z,5.32
2018-01-31T04:40:55.741Z,5.32
2018-01-31T04:43:26.565Z,5.60
2018-01-31T04:45:57.412Z,5.60
2018-01-31T04:48:29.350Z,5.30
2018-01-31T04:51:00.958Z,5.46
2018-01-31T04:53:31.650Z,6.40
2018-01-31T04:56:03.227Z,6.10
2018-01-31T04:58:33.942Z,5.93
2018-01-31T05:01:03.480Z,5.95
2018-01-31T05:03:33.858Z,6.00
2018-01-31T05:06:05.523Z,5.32
2018-01-31T05:08:36.234Z,7.25
2018-01-31T05:11:06.607Z,6.93
2018-01-31T05:13:37.688Z,8.80
2018-01-31T05:16:07.808Z,6.57
2018-01-31T05:18:40.307Z,5.30
2018-01-31T05:21:11.792Z,6.92
2018-01-31T05:23:42.207Z,7.14
2018-01-31T05:26:12.879Z,7.30
2018-01-31T05:28:43.791Z,7.55
2018-01-31T05:31:16.472Z,6.52
2018-01-31T05:33:47.301Z,9.98
2018-01-31T05:36:16.531Z,10.53
2018-01-31T05:38:46.947Z,8.35
2018-01-31T05:41:19.067Z,8.20
2018-01-31T05:43:49.838Z,7.12
2018-01-31T05:46:20.385Z,6.66
2018-01-31T05:48:51.018Z,6.75
2018-01-31T05:51:21.883Z,8.07
2018-01-31T05:53:52.816Z,9.38
2018-01-31T05:56:24.185Z,9.64
2018-01-31T05:58:54.928Z,7.55
2018-01-31T06:01:25.923Z,7.10
2018-01-31T06:03:56.863Z,6.75
2018-01-31T06:06:27.698Z,7.03
2018-01-31T06:08:58.600Z,6.90
2018-01-31T06:11:29.155Z,6.44
2018-01-31T06:14:00.055Z,7.87
2018-01-31T06:16:31.573Z,7.34
2018-01-31T06:19:01.407Z,6.68
2018-01-31T06:21:31.955Z,6.90
2018-01-31T06:24:02.925Z,7.70
2018-01-31T06:26:33.406Z,7.56
2018-01-31T06:29:03.937Z,7.78
2018-01-31T06:31:34.818Z,8.68
2018-01-31T06:34:05.748Z,8.32
2018-01-31T06:36:36.593Z,8.35
2018-01-31T06:39:07.544Z,7.66
2018-01-31T06:41:38.503Z,7.87
2018-01-31T06:44:09.924Z,8.68
2018-01-31T06:46:41.223Z,7.34
2018-01-31T06:49:13.856Z,8.10
2018-01-31T06:51:44.500Z,8.68
2018-01-31T06:54:13.791Z,11.80
2018-01-31T06:56:44.322Z,12.78
2018-01-31T06:59:14.204Z,16.35
2018-01-31T07:01:44.899Z,17.65
2018-01-31T07:04:15.848Z,16.20
2018-01-31T07:06:47.069Z,13.20
2018-01-31T07:09:17.879Z,12.13
2018-01-31T07:11:48.748Z,13.02
2018-01-31T07:14:19.709Z,24.23
2018-01-31T07:16:51.083Z,37.68
2018-01-31T07:19:21.963Z,54.08
2018-01-31T07:21:52.604Z,58.78
2018-01-31T07:24:23.614Z,40.17
2018-01-31T07:26:55.035Z,36.06
2018-01-31T07:29:26.006Z,66.28
2018-01-31T07:31:56.858Z,18.67
2018-01-31T07:34:27.792Z,39.28
2018-01-31T07:36:59.791Z,15.75
2018-01-31T07:39:30.451Z,23.98
2018-01-31T07:42:00.871Z,9.65
2018-01-31T07:44:32.149Z,7.95
2018-01-31T07:47:03.062Z,8.00
2018-01-31T07:49:33.961Z,7.87
2018-01-31T07:52:04.416Z,7.20
2018-01-31T07:54:36.081Z,32.02
2018-01-31T07:57:06.990Z,12.18
2018-01-31T07:59:37.915Z,24.52
2018-01-31T08:02:08.833Z,13.38
2018-01-31T08:04:39.758Z,7.50
2018-01-31T08:07:10.648Z,18.83
2018-01-31T08:09:41.584Z,15.40
2018-01-31T08:12:12.937Z,26.64
2018-01-31T08:14:44.453Z,18.04
2018-01-31T08:17:14.966Z,56.22
2018-01-31T08:19:45.899Z,15.65
2018-01-31T08:22:16.791Z,7.57
2018-01-31T08:24:47.058Z,6.05
2018-01-31T08:27:17.711Z,5.62
2018-01-31T08:29:48.603Z,6.25
2018-01-31T08:32:18.880Z,5.43
2018-01-31T08:34:50.415Z,6.42
2018-01-31T08:37:21.956Z,6.36
2018-01-31T08:39:52.886Z,6.50
2018-01-31T08:42:24.095Z,6.05
2018-01-31T08:44:55.120Z,6.57
2018-01-31T08:47:25.829Z,7.12
2018-01-31T08:49:56.498Z,6.76
2018-01-31T08:52:26.902Z,12.55
2018-01-31T08:54:57.920Z,11.23
2018-01-31T08:57:28.471Z,12.88
2018-01-31T08:59:59.151Z,7.18
2018-01-31T09:02:30.419Z,6.98
2018-01-31T09:05:01.311Z,6.68
2018-01-31T09:07:31.835Z,7.78
2018-01-31T09:10:02.830Z,7.85
2018-01-31T09:12:33.747Z,7.47
2018-01-31T09:15:04.298Z,7.05
2018-01-31T09:17:34.999Z,6.70
2018-01-31T09:20:05.515Z,8.20
2018-01-31T09:22:36.560Z,7.64
2018-01-31T09:25:08.059Z,7.12
2018-01-31T09:27:38.770Z,7.05
2018-01-31T09:30:08.803Z,6.62
2018-01-31T09:32:39.899Z,7.08
2018-01-31T09:35:10.989Z,6.37
2018-01-31T09:37:41.403Z,6.25
2018-01-31T09:40:12.918Z,6.46
2018-01-31T09:42:43.424Z,6.08
2018-01-31T09:45:13.996Z,5.53
2018-01-31T09:47:44.897Z,5.80
2018-01-31T09:50:15.831Z,5.87
2018-01-31T09:52:46.695Z,5.22
2018-01-31T09:55:17.247Z,5.03
2018-01-31T09:57:48.180Z,5.60
2018-01-31T10:00:19.053Z,5.07
2018-01-31T10:02:50.211Z,5.00
2018-01-31T10:05:20.874Z,4.72
2018-01-31T10:07:51.729Z,5.43
2018-01-31T10:10:23.128Z,5.64
2018-01-31T10:12:53.475Z,4.92
2018-01-31T10:15:24.115Z,5.78
2018-01-31T10:17:54.961Z,5.22
2018-01-31T10:20:25.903Z,5.00
2018-01-31T10:22:56.593Z,4.95
2018-01-31T10:25:28.054Z,4.86
2018-01-31T10:27:58.899Z,5.30
2018-01-31T10:30:29.936Z,4.75
2018-01-31T10:33:00.875Z,5.40
2018-01-31T10:35:31.396Z,4.70
2018-01-31T10:38:01.887Z,21.30
2018-01-31T10:40:32.814Z,21.27
2018-01-31T10:43:03.695Z,5.20
2018-01-31T10:45:34.243Z,8.06
2018-01-31T10:48:04.976Z,7.70
2018-01-31T10:50:36.056Z,6.97
2018-01-31T10:53:06.912Z,6.37
2018-01-31T10:58:08.817Z,5.60
2018-01-31T11:00:37.294Z,4.87
2018-01-31T11:03:07.481Z,4.60
2018-01-31T11:05:38.353Z,5.50
2018-01-31T11:08:08.467Z,4.57
2018-01-31T11:10:38.433Z,4.20
2018-01-31T11:13:07.644Z,3.63
2018-01-31T11:15:36.801Z,4.40
2018-01-31T11:18:05.981Z,3.90
2018-01-31T11:20:35.112Z,4.07
2018-01-31T11:23:03.487Z,3.63
2018-01-31T11:25:32.408Z,4.20
2018-01-31T11:28:01.231Z,3.60
2018-01-31T11:30:30.112Z,3.83
2018-01-31T11:32:59.605Z,3.17
2018-01-31T11:35:28.749Z,3.33
2018-01-31T11:37:57.892Z,3.50
2018-01-31T11:40:27.054Z,3.05
2018-01-31T11:42:55.975Z,3.60
2018-01-31T11:45:25.047Z,3.57
2018-01-31T11:47:53.914Z,2.67
2018-01-31T11:50:22.955Z,2.90
2018-01-31T11:52:52.033Z,3.10
2018-01-31T11:55:20.923Z,3.23
2018-01-31T11:57:49.714Z,2.57
2018-01-31T12:00:18.255Z,3.17
2018-01-31T12:02:47.155Z,3.10
2018-01-31T12:05:15.943Z,2.97
2018-01-31T12:07:44.770Z,3.00
2018-01-31T12:10:13.048Z,2.93
2018-01-31T12:12:50.418Z,3.00
2018-01-31T12:15:24.722Z,3.73
2018-01-31T12:17:53.798Z,3.55
2018-01-31T12:23:42.079Z,3.45
2018-01-31T12:29:27.781Z,3.97
2018-01-31T12:32:07.847Z,3.60
2018-01-31T12:34:47.679Z,3.47
2018-01-31T12:40:36.878Z,7.10
2018-01-31T12:43:04.783Z,4.23
2018-01-31T12:45:32.616Z,4.33
2018-01-31T12:48:02.499Z,3.90
2018-01-31T12:50:42.364Z,4.13
2018-01-31T12:53:22.274Z,3.70
2018-01-31T12:56:02.145Z,9.97
2018-01-31T12:58:42.436Z,4.73
2018-01-31T13:01:22.590Z,3.83
2018-01-31T13:04:04.436Z,4.78
2018-01-31T13:06:44.698Z,3.90
2018-01-31T13:09:18.843Z,4.20
2018-01-31T13:11:58.903Z,4.60
2018-01-31T13:14:38.768Z,4.17
2018-01-31T13:17:18.879Z,4.50
2018-01-31T13:19:58.691Z,4.60
2018-01-31T13:22:44.084Z,4.82
2018-01-31T13:25:24.385Z,5.00
2018-01-31T13:28:09.724Z,4.60
2018-01-31T13:33:51.747Z,4.57
2018-01-31T13:36:31.906Z,6.03
2018-01-31T13:39:14.742Z,4.80
2018-01-31T13:41:54.900Z,5.18
2018-01-31T13:44:35.569Z,4.60
2018-01-31T13:47:15.548Z,4.43
2018-01-31T13:49:55.410Z,5.13
2018-01-31T13:52:35.014Z,5.30
2018-01-31T13:55:14.916Z,4.93
2018-01-31T13:57:54.848Z,5.00
2018-01-31T14:00:34.977Z,4.67
2018-01-31T14:03:14.886Z,5.20
2018-01-31T14:05:54.738Z,4.87
2018-01-31T14:08:34.519Z,8.43
2018-01-31T14:11:14.337Z,7.97
2018-01-31T14:13:54.093Z,8.30
2018-01-31T14:16:34.012Z,5.63
2018-01-31T14:19:13.717Z,5.87
2018-01-31T14:21:55.448Z,6.00
2018-01-31T14:27:38.422Z,5.25
2018-01-31T14:30:18.264Z,5.33
2018-01-31T14:32:58.198Z,5.67
2018-01-31T14:38:29.332Z,5.72
2018-01-31T14:40:57.454Z,6.20
2018-01-31T14:43:25.412Z,6.53
2018-01-31T14:45:53.006Z,5.60
2018-01-31T14:48:20.551Z,5.93
2018-01-31T14:50:48.499Z,5.50
2018-01-31T14:53:16.414Z,5.87
2018-01-31T14:55:43.961Z,5.93
2018-01-31T14:58:12.015Z,6.70
2018-01-31T15:00:39.574Z,6.33
2018-01-31T15:03:07.114Z,7.33
2018-01-31T15:05:34.775Z,7.00
2018-01-31T15:08:02.688Z,6.72
2018-01-31T15:10:30.339Z,6.30
2018-01-31T15:12:57.999Z,7.43
2018-01-31T15:15:25.520Z,5.97
2018-01-31T15:17:53.330Z,6.70
2018-01-31T15:20:20.914Z,6.50
2018-01-31T15:22:48.521Z,7.13
2018-01-31T15:25:16.352Z,6.65
2018-01-31T15:27:43.942Z,7.00
2018-01-31T15:30:11.495Z,8.80
2018-01-31T15:32:39.410Z,7.90
2018-01-31T15:35:07.301Z,7.45
2018-01-31T15:37:35.174Z,9.02
2018-01-31T15:40:02.691Z,20.90
2018-01-31T15:42:30.360Z,8.53
2018-01-31T15:44:58.224Z,8.68
2018-01-31T15:47:26.110Z,9.27
2018-01-31T15:49:53.946Z,7.82
2018-01-31T15:52:22.030Z,8.00
2018-01-31T15:54:51.261Z,7.74
2018-01-31T15:57:20.294Z,7.22
2018-01-31T15:59:50.634Z,7.06
2018-01-31T16:02:20.771Z,7.10
2018-01-31T16:04:50.291Z,7.05
2018-01-31T16:07:18.273Z,6.32
2018-01-31T16:09:46.098Z,7.40
2018-01-31T16:12:13.680Z,6.67
2018-01-31T16:14:41.526Z,7.00
2018-01-31T16:17:10.374Z,7.60
2018-01-31T16:19:50.336Z,6.97
2018-01-31T16:22:19.108Z,6.85
2018-01-31T16:24:47.923Z,6.83
2018-01-31T16:27:25.259Z,6.90
2018-01-31T16:30:13.526Z,8.85
2018-01-31T16:32:52.828Z,8.95
2018-01-31T16:35:21.912Z,8.80
2018-01-31T16:37:50.831Z,7.00
2018-01-31T16:40:20.226Z,7.87
2018-01-31T16:42:49.395Z,8.40
2018-01-31T16:45:18.693Z,5.90
2018-01-31T16:47:47.914Z,21.02
2018-01-31T16:50:17.142Z,6.50
2018-01-31T16:52:47.674Z,6.95
2018-01-31T16:55:16.984Z,7.60
2018-01-31T16:57:46.586Z,7.07
2018-01-31T17:00:15.451Z,6.87
2018-01-31T17:02:45.210Z,7.75
2018-01-31T17:05:15.577Z,6.80
2018-01-31T17:07:45.640Z,6.93
2018-01-31T17:10:16.027Z,6.85
2018-01-31T17:12:46.555Z,6.05
2018-01-31T17:15:17.593Z,6.30
2018-01-31T17:17:48.494Z,6.05
2018-01-31T17:20:20.019Z,6.82
2018-01-31T17:22:50.856Z,6.22
2018-01-31T17:25:21.760Z,6.40
2018-01-31T17:27:52.688Z,7.30
2018-01-31T17:30:23.297Z,7.96
2018-01-31T17:32:53.878Z,6.75
2018-01-31T17:35:25.199Z,7.98
2018-01-31T17:37:55.866Z,7.82
2018-01-31T17:40:26.841Z,7.55
2018-01-31T17:42:57.915Z,7.12
2018-01-31T17:45:29.506Z,7.35
2018-01-31T17:47:59.331Z,7.10
2018-01-31T17:50:29.696Z,7.60
2018-01-31T17:53:01.192Z,7.20
2018-01-31T17:55:32.088Z,6.93
2018-01-31T17:58:03.007Z,7.90
2018-01-31T18:00:34.311Z,6.43
2018-01-31T18:03:04.992Z,8.05
2018-01-31T18:05:35.536Z,7.68
2018-01-31T18:08:05.884Z,8.07
2018-01-31T18:10:36.775Z,7.10
2018-01-31T18:13:07.632Z,7.20
2018-01-31T18:15:38.939Z,7.86
2018-01-31T18:18:09.807Z,7.97
2018-01-31T18:20:40.666Z,8.70
2018-01-31T18:23:11.561Z,9.77
2018-01-31T18:25:42.852Z,9.74
2018-01-31T18:28:13.664Z,7.55
2018-01-31T18:30:44.708Z,7.78
2018-01-31T18:33:15.165Z,6.90
2018-01-31T18:35:45.908Z,5.75
2018-01-31T18:38:16.751Z,6.65
2018-01-31T18:40:47.613Z,6.87
2018-01-31T18:43:18.506Z,7.18
2018-01-31T18:45:49.852Z,6.26
2018-01-31T18:48:20.642Z,7.15
2018-01-31T18:50:50.508Z,6.82
2018-01-31T18:53:21.915Z,7.52
2018-01-31T18:55:52.794Z,6.78
2018-01-31T18:58:24.714Z,6.36
2018-01-31T19:00:55.508Z,6.55
2018-01-31T19:03:25.158Z,6.57
2018-01-31T19:05:55.850Z,6.47
2018-01-31T19:08:26.752Z,6.00
2018-01-31T19:10:57.615Z,5.90
2018-01-31T19:13:28.835Z,6.76
2018-01-31T19:15:59.719Z,6.87
2018-01-31T19:18:30.935Z,7.58
2018-01-31T19:21:01.867Z,12.73
2018-01-31T19:23:32.429Z,8.28
2018-01-31T19:26:03.060Z,11.80
2018-01-31T19:28:33.864Z,8.00
2018-01-31T19:31:05.038Z,9.02
2018-01-31T19:33:35.756Z,7.60
2018-01-31T19:36:06.863Z,7.68
2018-01-31T19:38:37.696Z,7.75
2018-01-31T19:41:08.807Z,9.02
2018-01-31T19:43:39.623Z,7.18
2018-01-31T19:46:10.717Z,13.75
2018-01-31T19:48:41.554Z,6.93
2018-01-31T19:51:12.523Z,7.47
2018-01-31T19:53:43.931Z,10.76
2018-01-31T19:56:14.859Z,10.85
2018-01-31T19:58:45.739Z,7.78
2018-01-31T20:01:16.310Z,8.98
2018-01-31T20:03:46.827Z,7.25
2018-01-31T20:06:17.870Z,7.10
2018-01-31T20:08:48.691Z,8.57
2018-01-31T20:11:19.564Z,9.85
2018-01-31T20:13:50.915Z,9.10
2018-01-31T20:16:21.806Z,9.13
2018-01-31T20:18:52.583Z,9.15
2018-01-31T20:21:23.550Z,8.48
2018-01-31T20:23:54.939Z,9.74
2018-01-31T20:26:25.919Z,9.75
2018-01-31T20:28:56.831Z,8.73
2018-01-31T20:31:27.781Z,8.75
2018-01-31T20:33:58.678Z,9.52
2018-01-31T20:36:29.566Z,9.43
2018-01-31T20:39:00.818Z,10.14
2018-01-31T20:41:31.130Z,9.88
2018-01-31T20:44:01.685Z,9.43
2018-01-31T20:46:32.514Z,9.15
2018-01-31T20:49:03.149Z,8.25
2018-01-31T20:51:34.187Z,9.50
2018-01-31T20:54:05.172Z,10.10
2018-01-31T20:56:35.758Z,9.10
2018-01-31T20:59:06.395Z,8.77
2018-01-31T21:01:37.191Z,9.30
2018-01-31T21:04:08.491Z,10.52
2018-01-31T21:06:39.778Z,12.35
2018-01-31T21:09:12.314Z,14.13
2018-01-31T21:11:43.844Z,16.45
2018-01-31T21:14:14.880Z,13.02
2018-01-31T21:16:45.435Z,12.36
2018-01-31T21:19:15.475Z,11.38
2018-01-31T21:21:45.793Z,11.82
2018-01-31T21:24:16.638Z,11.95
2018-01-31T21:26:47.623Z,11.88
2018-01-31T21:29:19.162Z,11.84
2018-01-31T21:31:49.921Z,11.73
2018-01-31T21:34:20.830Z,11.27
2018-01-31T21:36:51.296Z,12.05
2018-01-31T21:39:22.875Z,12.14
2018-01-31T21:41:53.965Z,11.50
2018-01-31T21:44:24.437Z,12.50
2018-01-31T21:46:55.295Z,12.80
2018-01-31T21:49:25.330Z,12.48
2018-01-31T21:51:56.324Z,11.90
2018-01-31T21:54:27.184Z,10.70
2018-01-31T21:56:57.575Z,10.38
2018-01-31T21:59:28.335Z,10.30
2018-01-31T22:01:58.895Z,10.15
2018-01-31T22:04:29.784Z,10.23
2018-01-31T22:07:00.689Z,10.20
2018-01-31T22:09:31.539Z,16.40
2018-01-31T22:12:02.915Z,11.20
2018-01-31T22:14:34.579Z,10.00
2018-01-31T22:17:05.071Z,9.25
2018-01-31T22:19:35.940Z,8.85
2018-01-31T22:22:06.536Z,8.70
2018-01-31T22:24:37.907Z,7.64
2018-01-31T22:27:08.847Z,7.40
2018-01-31T22:29:39.705Z,7.50
2018-01-31T22:32:10.612Z,8.27
2018-01-31T22:34:41.889Z,7.98
2018-01-31T22:37:12.817Z,8.18
2018-01-31T22:39:43.339Z,7.95
2018-01-31T22:42:14.217Z,8.05
2018-01-31T22:44:44.843Z,7.57
2018-01-31T22:47:15.802Z,7.12
2018-01-31T22:49:46.279Z,5.94
2018-01-31T22:52:16.882Z,6.53
2018-01-31T22:54:47.330Z,6.50
2018-01-31T22:57:17.946Z,5.97
2018-01-31T22:59:48.779Z,5.75
2018-01-31T23:02:19.685Z,6.03
2018-01-31T23:04:50.538Z,6.75
2018-01-31T23:07:22.217Z,6.00
2018-01-31T23:09:52.855Z,7.93
2018-01-31T23:12:24.836Z,5.70
2018-01-31T23:14:55.259Z,6.20
2018-01-31T23:17:31.360Z,6.28
2018-01-31T23:20:00.496Z,6.53
2018-01-31T23:22:29.612Z,5.92
2018-01-31T23:24:59.228Z,7.18
2018-01-31T23:27:29.847Z,7.30
2018-01-31T23:29:59.723Z,17.35
2018-01-31T23:32:33.284Z,24.06
2018-01-31T23:35:02.813Z,7.46
2018-01-31T23:37:33.336Z,5.78
2018-01-31T23:40:03.784Z,5.80
2018-01-31T23:42:34.219Z,5.78
2018-01-31T23:45:05.076Z,5.57
2018-01-31T23:47:35.832Z,5.37
2018-01-31T23:50:06.752Z,5.47
2018-01-31T23:52:37.599Z,5.80
2018-01-31T23:55:08.598Z,5.50
2018-01-31T23:57:39.890Z,5.94
